Time;durP1;ratioP1;P1;durP2;ratioP2;P2;SDS_P1;SDS_P2;PMS_P1;PMS_P2;Temp;Humidity;BMP_temperature;BMP_pressure;BME280_temperature;BME280_humidity;BME280_pressure;Samples;Min_cycle;Max_cycle;Signal;HPM_P1;HPM_P2
2022/06/21 00:02:13;;;;;;;6.05;2.35;;;;;;;;;;5078804;28;20497;-81
2022/06/21 00:04:39;;;;;;;7.70;2.67;;;;;;;;;;5072176;28;20122;-80
2022/06/21 00:07:06;;;;;;;3.15;1.77;;;;;;;;;;5078043;28;20488;-80
2022/06/21 00:09:33;;;;;;;9.82;3.45;;;;;;;;;;5062324;28;20045;-80
2022/06/21 00:11:59;;;;;;;5.25;2.60;;;;;;;;;;5064324;28;20068;-80
2022/06/21 00:14:24;;;;;;;4.80;2.80;;;;;;;;;;5061757;28;20033;-80
2022/06/21 00:16:50;;;;;;;3.95;2.30;;;;;;;;;;5062996;28;20062;-79
2022/06/21 00:19:19;;;;;;;9.13;2.78;;;;;;;;;;5063626;28;20048;-79
2022/06/21 00:21:46;;;;;;;8.05;2.75;;;;;;;;;;5061764;28;20037;-80
2022/06/21 00:24:13;;;;;;;4.68;2.05;;;;;;;;;;5062934;28;20040;-80
2022/06/21 00:26:39;;;;;;;4.55;2.00;;;;;;;;;;5063153;28;20051;-79
2022/06/21 00:29:05;;;;;;;6.85;2.40;;;;;;;;;;5061146;28;20071;-79
2022/06/21 00:31:33;;;;;;;8.93;2.28;;;;;;;;;;5074160;28;20064;-79
2022/06/21 00:34:01;;;;;;;8.88;2.50;;;;;;;;;;5053197;28;20041;-79
2022/06/21 00:36:33;;;;;;;7.40;2.25;;;;;;;;;;5053784;28;20081;-79
2022/06/21 00:39:00;;;;;;;5.65;1.95;;;;;;;;;;5070001;28;20083;-79
2022/06/21 00:41:47;;;;;;;5.85;2.80;;;;;;;;;;5069860;28;20070;-79
2022/06/21 00:44:16;;;;;;;3.60;2.30;;;;;;;;;;5053369;28;20067;-79
2022/06/21 00:46:47;;;;;;;3.78;1.90;;;;;;;;;;5053347;28;20051;-79
2022/06/21 00:49:12;;;;;;;;;;;;;;;;;;5070473;28;20089;-79
2022/06/21 00:51:41;;;;;;;4.38;2.03;;;;;;;;;;5070048;28;20373;-79
2022/06/21 00:54:23;;;;;;;2.58;2.10;;;;;;;;;;5069988;28;20036;-79
2022/06/21 00:57:11;;;;;;;6.70;2.30;;;;;;;;;;5069867;28;20048;-79
2022/06/21 00:59:38;;;;;;;4.07;2.17;;;;;;;;;;5053279;28;20044;-79
2022/06/21 01:02:07;;;;;;;3.70;2.30;;;;;;;;;;5053176;28;20094;-79
2022/06/21 01:04:41;;;;;;;6.32;2.58;;;;;;;;;;5058402;28;20043;-79
2022/06/21 01:07:09;;;;;;;11.02;2.65;;;;;;;;;;5078416;28;20115;-79
2022/06/21 01:09:52;;;;;;;4.47;2.20;;;;;;;;;;5077762;28;20051;-79
2022/06/21 01:12:24;;;;;;;3.17;2.28;;;;;;;;;;5062927;28;20032;-79
2022/06/21 01:15:17;;;;;;;4.78;1.88;;;;;;;;;;5062318;28;20044;-79
2022/06/21 01:17:44;;;;;;;4.63;2.13;;;;;;;;;;5060533;28;20052;-80
2022/06/21 01:20:12;;;;;;;7.28;2.70;;;;;;;;;;5062143;28;20069;-79
2022/06/21 01:22:44;;;;;;;6.18;2.40;;;;;;;;;;5060494;28;20400;-79
2022/06/21 01:25:18;;;;;;;6.18;2.65;;;;;;;;;;5061999;28;20055;-79
2022/06/21 01:27:43;;;;;;;4.75;2.35;;;;;;;;;;5079656;28;20059;-79
2022/06/21 01:30:10;;;;;;;3.75;2.50;;;;;;;;;;5061923;28;20049;-79
2022/06/21 01:32:36;;;;;;;8.63;3.33;;;;;;;;;;5060962;28;20040;-79
2022/06/21 01:35:08;;;;;;;3.90;2.72;;;;;;;;;;5077687;28;20043;-79
2022/06/21 01:37:34;;;;;;;11.43;3.35;;;;;;;;;;5061211;28;20511;-80
2022/06/21 01:40:09;;;;;;;8.25;3.03;;;;;;;;;;5079185;28;20056;-80
2022/06/21 01:42:38;;;;;;;6.57;2.40;;;;;;;;;;5062603;28;20477;-80
2022/06/21 01:45:07;;;;;;;4.28;2.30;;;;;;;;;;5062351;28;20036;-80
2022/06/21 01:47:55;;;;;;;13.18;4.07;;;;;;;;;;5079044;28;20048;-80
2022/06/21 01:50:22;;;;;;;5.18;2.35;;;;;;;;;;5062613;28;20127;-79
2022/06/21 01:52:49;;;;;;;4.07;2.88;;;;;;;;;;5062430;28;20033;-79
2022/06/21 01:55:28;;;;;;;6.32;2.88;;;;;;;;;;5064504;28;20471;-79
2022/06/21 01:57:55;;;;;;;5.72;2.35;;;;;;;;;;5082813;28;20499;-79
2022/06/21 02:00:21;;;;;;;6.07;3.10;;;;;;;;;;5063540;28;20040;-79
2022/06/21 02:02:50;;;;;;;7.97;3.10;;;;;;;;;;5064846;28;20044;-80
2022/06/21 02:05:18;;;;;;;7.07;2.80;;;;;;;;;;5080604;28;21080;-79
2022/06/21 02:07:46;;;;;;;4.88;3.03;;;;;;;;;;5064414;28;20036;-80
2022/06/21 02:10:12;;;;;;;7.55;2.70;;;;;;;;;;5080580;28;20033;-79
2022/06/21 02:12:48;;;;;;;6.18;2.78;;;;;;;;;;5063836;28;20044;-79
2022/06/21 02:15:20;;;;;;;3.85;2.67;;;;;;;;;;5066437;28;20071;-79
2022/06/21 02:17:48;;;;;;;8.93;2.88;;;;;;;;;;5065951;28;20032;-79
2022/06/21 02:20:18;;;;;;;7.20;2.50;;;;;;;;;;5082098;28;20068;-79
2022/06/21 02:22:44;;;;;;;6.63;2.60;;;;;;;;;;5080771;28;20396;-78
2022/06/21 02:25:15;;;;;;;3.67;2.33;;;;;;;;;;5081199;28;20130;-78
2022/06/21 02:27:41;;;;;;;4.18;2.47;;;;;;;;;;5082300;28;20572;-78
2022/06/21 02:30:12;;;;;;;3.55;2.53;;;;;;;;;;5063727;28;20080;-78
2022/06/21 02:32:39;;;;;;;6.88;2.67;;;;;;;;;;5063168;28;20028;-78
2022/06/21 02:35:05;;;;;;;10.50;3.30;;;;;;;;;;5063976;28;20476;-78
2022/06/21 02:37:33;;;;;;;6.63;3.10;;;;;;;;;;5080461;28;20039;-78
2022/06/21 02:40:00;;;;;;;5.07;2.95;;;;;;;;;;5064990;28;20438;-78
2022/06/21 02:42:31;;;;;;;6.00;3.38;;;;;;;;;;5089841;28;20048;-77
2022/06/21 02:45:01;;;;;;;7.00;2.70;;;;;;;;;;5091846;28;20102;-78
2022/06/21 02:47:30;;;;;;;4.40;2.55;;;;;;;;;;5075326;28;20032;-78
2022/06/21 02:50:01;;;;;;;6.82;2.70;;;;;;;;;;5092240;28;20044;-77
2022/06/21 02:52:32;;;;;;;4.68;2.70;;;;;;;;;;5075425;28;20090;-77
2022/06/21 02:55:03;;;;;;;6.45;2.80;;;;;;;;;;5075246;28;20040;-78
2022/06/21 02:57:32;;;;;;;4.40;2.30;;;;;;;;;;5075850;28;20051;-78
2022/06/21 02:59:59;;;;;;;3.70;2.42;;;;;;;;;;5075130;28;20036;-78
2022/06/21 03:02:26;;;;;;;4.05;2.30;;;;;;;;;;5092022;28;20040;-77
2022/06/21 03:05:00;;;;;;;4.10;2.45;;;;;;;;;;5091807;28;20055;-77
2022/06/21 03:07:33;;;;;;;4.97;2.60;;;;;;;;;;5075247;28;20484;-77
2022/06/21 03:09:59;;;;;;;6.28;2.92;;;;;;;;;;5075865;28;20077;-78
2022/06/21 03:12:29;;;;;;;5.97;3.55;;;;;;;;;;5076125;28;20036;-77
2022/06/21 03:14:58;;;;;;;2.85;2.65;;;;;;;;;;5075879;28;20051;-77
2022/06/21 03:17:27;;;;;;;3.95;2.78;;;;;;;;;;5092636;28;20043;-78
2022/06/21 03:19:53;;;;;;;4.22;2.72;;;;;;;;;;5092650;28;20110;-78
2022/06/21 03:22:30;;;;;;;5.45;3.03;;;;;;;;;;5092458;28;20046;-78
2022/06/21 03:24:57;;;;;;;7.72;2.95;;;;;;;;;;5075962;28;20135;-78
2022/06/21 03:27:31;;;;;;;4.35;2.80;;;;;;;;;;5075838;28;20047;-78
2022/06/21 03:29:57;;;;;;;4.90;2.72;;;;;;;;;;5075144;28;20066;-78
2022/06/21 03:32:23;;;;;;;2.78;2.33;;;;;;;;;;5075679;28;20047;-77
2022/06/21 03:34:50;;;;;;;2.72;1.98;;;;;;;;;;5092456;28;20135;-78
2022/06/21 03:37:17;;;;;;;2.60;2.40;;;;;;;;;;5075262;28;20126;-78
2022/06/21 03:42:31;;;;;;;3.28;2.30;;;;;;;;;;5092379;28;20488;-77
2022/06/21 03:45:02;;;;;;;2.65;2.00;;;;;;;;;;5091815;28;20040;-77
2022/06/21 03:47:37;;;;;;;2.55;2.10;;;;;;;;;;5075187;28;20503;-77
2022/06/21 03:50:08;;;;;;;3.45;1.60;;;;;;;;;;5091849;28;20047;-77
2022/06/21 03:52:44;;;;;;;1.73;1.63;;;;;;;;;;5075399;28;20127;-77
2022/06/21 03:55:16;;;;;;;2.70;1.98;;;;;;;;;;5091915;28;20040;-77
2022/06/21 03:57:45;;;;;;;2.90;2.22;;;;;;;;;;5072299;28;20040;-77
2022/06/21 04:00:13;;;;;;;2.20;1.88;;;;;;;;;;5072441;28;20047;-77
2022/06/21 04:02:45;;;;;;;2.75;1.95;;;;;;;;;;5071984;28;20044;-77
2022/06/21 04:05:18;;;;;;;2.65;2.30;;;;;;;;;;5089257;28;20039;-77
2022/06/21 04:07:52;;;;;;;3.00;2.70;;;;;;;;;;5070759;28;20036;-78
2022/06/21 04:10:27;;;;;;;3.53;2.58;;;;;;;;;;5070320;28;20048;-78
2022/06/21 04:12:55;;;;;;;3.08;2.70;;;;;;;;;;5069953;28;20040;-78
2022/06/21 04:15:23;;;;;;;3.80;3.10;;;;;;;;;;5069733;28;20048;-77
2022/06/21 04:18:21;;;;;;;4.85;3.03;;;;;;;;;;5086990;28;20044;-78
2022/06/21 04:20:47;;;;;;;3.00;2.70;;;;;;;;;;5053670;28;20104;-77
2022/06/21 04:23:17;;;;;;;6.13;2.53;;;;;;;;;;5070437;28;20131;-77
2022/06/21 04:25:57;;;;;;;5.85;2.50;;;;;;;;;;5066070;28;20032;-77
2022/06/21 04:28:27;;;;;;;3.08;2.60;;;;;;;;;;5063090;28;20127;-77
2022/06/21 04:31:05;;;;;;;4.95;2.72;;;;;;;;;;5063170;28;20097;-78
2022/06/21 04:33:41;;;;;;;6.65;3.30;;;;;;;;;;5061570;28;20028;-78
2022/06/21 04:36:12;;;;;;;4.32;2.83;;;;;;;;;;5078118;28;20122;-78
2022/06/21 04:38:54;;;;;;;4.53;2.88;;;;;;;;;;5061987;28;20127;-77
2022/06/21 04:41:39;;;;;;;5.43;2.97;;;;;;;;;;5079985;28;20048;-78
2022/06/21 04:44:08;;;;;;;3.88;3.03;;;;;;;;;;5079975;28;20388;-77
2022/06/21 04:46:40;;;;;;;5.82;2.72;;;;;;;;;;5078596;28;20167;-78
2022/06/21 04:49:28;;;;;;;3.28;2.88;;;;;;;;;;5077630;28;20090;-78
2022/06/21 04:52:01;;;;;;;8.50;3.17;;;;;;;;;;5062024;28;20040;-78
2022/06/21 04:54:28;;;;;;;4.28;3.58;;;;;;;;;;5060903;28;20037;-78
2022/06/21 04:57:07;;;;;;;5.18;3.60;;;;;;;;;;5079188;28;20032;-78
2022/06/21 04:59:42;;;;;;;4.72;3.65;;;;;;;;;;5061998;28;20396;-78
2022/06/21 05:02:15;;;;;;;5.38;4.00;;;;;;;;;;5060930;28;20072;-78
2022/06/21 05:04:41;;;;;;;7.53;4.03;;;;;;;;;;5061405;28;20036;-78
2022/06/21 05:07:11;;;;;;;6.43;3.80;;;;;;;;;;5063090;28;20088;-78
2022/06/21 05:09:37;;;;;;;7.15;4.40;;;;;;;;;;5060282;28;20503;-78
2022/06/21 05:12:11;;;;;;;6.25;3.53;;;;;;;;;;5062621;28;20044;-78
2022/06/21 05:14:39;;;;;;;7.68;3.97;;;;;;;;;;5078554;28;20037;-78
2022/06/21 05:17:06;;;;;;;5.93;4.22;;;;;;;;;;5063818;28;20044;-79
2022/06/21 05:19:39;;;;;;;7.20;3.85;;;;;;;;;;5061122;28;20396;-79
2022/06/21 05:22:10;;;;;;;4.40;3.40;;;;;;;;;;5060697;28;20511;-79
2022/06/21 05:24:36;;;;;;;8.30;3.53;;;;;;;;;;5061868;28;20075;-78
2022/06/21 05:27:02;;;;;;;9.45;3.60;;;;;;;;;;5063122;28;20097;-78
2022/06/21 05:29:32;;;;;;;6.45;3.90;;;;;;;;;;5083274;28;20036;-78
2022/06/21 05:32:00;;;;;;;9.48;4.07;;;;;;;;;;5089082;28;20047;-78
2022/06/21 05:34:30;;;;;;;4.47;4.07;;;;;;;;;;5077572;28;20040;-78
2022/06/21 05:37:04;;;;;;;5.85;4.47;;;;;;;;;;5078054;28;20472;-77
2022/06/21 05:39:34;;;;;;;8.75;4.75;;;;;;;;;;5093479;28;20052;-78
2022/06/21 05:42:02;;;;;;;7.05;3.85;;;;;;;;;;5076562;28;20583;-78
2022/06/21 05:44:32;;;;;;;7.25;4.03;;;;;;;;;;5076722;28;20055;-78
2022/06/21 05:47:00;;;;;;;6.68;3.88;;;;;;;;;;5076799;28;20040;-79
2022/06/21 05:49:34;;;;;;;9.50;5.38;;;;;;;;;;5093912;28;20109;-80
2022/06/21 05:52:02;;;;;;;6.20;4.18;;;;;;;;;;5076849;28;20122;-79
2022/06/21 05:54:36;;;;;;;9.68;4.60;;;;;;;;;;5093590;28;20038;-79
2022/06/21 05:57:03;;;;;;;7.65;4.68;;;;;;;;;;5077009;28;20044;-78
2022/06/21 05:59:29;;;;;;;5.00;3.90;;;;;;;;;;5076318;28;20054;-79
2022/06/21 06:01:59;;;;;;;7.15;3.35;;;;;;;;;;5076492;28;20043;-78
2022/06/21 06:04:37;;;;;;;5.75;3.53;;;;;;;;;;5077747;28;20492;-78
2022/06/21 06:07:04;;;;;;;5.93;3.40;;;;;;;;;;5093757;28;20040;-79
2022/06/21 06:09:50;;;;;;;3.38;3.08;;;;;;;;;;5093389;28;20032;-80
2022/06/21 06:12:22;;;;;;;6.90;4.15;;;;;;;;;;5093049;28;20043;-80
2022/06/21 06:14:51;;;;;;;5.55;2.95;;;;;;;;;;5078430;28;20048;-79
2022/06/21 06:17:20;;;;;;;4.80;2.72;;;;;;;;;;5075040;28;20047;-79
2022/06/21 06:19:50;;;;;;;3.28;2.75;;;;;;;;;;5076378;28;20047;-79
2022/06/21 06:22:26;;;;;;;3.43;1.83;;;;;;;;;;5095702;28;20044;-79
2022/06/21 06:25:02;;;;;;;4.15;1.90;;;;;;;;;;5092768;28;20293;-79
2022/06/21 06:27:34;;;;;;;4.43;1.90;;;;;;;;;;5077104;28;20533;-78
2022/06/21 06:30:02;;;;;;;4.60;1.40;;;;;;;;;;5093274;28;20132;-79
2022/06/21 06:32:36;;;;;;;5.57;2.17;;;;;;;;;;5092999;28;20074;-79
2022/06/21 06:35:03;;;;;;;3.22;2.00;;;;;;;;;;5092793;28;20404;-80
2022/06/21 06:37:36;;;;;;;4.88;2.10;;;;;;;;;;5077252;28;20075;-79
2022/06/21 06:40:05;;;;;;;4.32;3.00;;;;;;;;;;5093327;28;20082;-80
2022/06/21 06:42:33;;;;;;;5.88;3.55;;;;;;;;;;5092363;28;20446;-80
2022/06/21 06:45:01;;;;;;;3.85;2.03;;;;;;;;;;5075665;28;20039;-79
2022/06/21 06:47:31;;;;;;;2.72;1.40;;;;;;;;;;5075552;28;20048;-80
2022/06/21 06:49:57;;;;;;;3.90;1.60;;;;;;;;;;5075222;28;20036;-79
2022/06/21 06:52:27;;;;;;;3.95;1.50;;;;;;;;;;5075454;28;20123;-79
2022/06/21 06:55:03;;;;;;;3.03;1.75;;;;;;;;;;5092424;28;20040;-79
2022/06/21 06:57:35;;;;;;;3.85;1.60;;;;;;;;;;5092167;28;20424;-79
2022/06/21 07:00:06;;;;;;;3.78;1.70;;;;;;;;;;5075248;28;20135;-79
2022/06/21 07:02:41;;;;;;;4.05;1.60;;;;;;;;;;5075185;28;20095;-79
2022/06/21 07:05:13;;;;;;;3.67;2.10;;;;;;;;;;5091949;28;20070;-79
2022/06/21 07:07:46;;;;;;;3.28;1.85;;;;;;;;;;5091746;28;20097;-79
2022/06/21 07:10:16;;;;;;;4.63;2.88;;;;;;;;;;5091769;28;20044;-79
2022/06/21 07:12:42;;;;;;;3.85;2.30;;;;;;;;;;5074886;28;20036;-79
2022/06/21 07:15:09;;;;;;;4.60;2.45;;;;;;;;;;5075177;28;20510;-79
2022/06/21 07:17:38;;;;;;;5.75;1.90;;;;;;;;;;5091715;28;20039;-80
2022/06/21 07:20:12;;;;;;;4.82;1.90;;;;;;;;;;5075044;28;20484;-80
2022/06/21 07:22:38;;;;;;;2.40;1.48;;;;;;;;;;5091666;28;20571;-79
2022/06/21 07:25:22;;;;;;;3.90;2.60;;;;;;;;;;5091429;28;20078;-80
2022/06/21 07:27:57;;;;;;;3.85;2.22;;;;;;;;;;5074755;28;20040;-80
2022/06/21 07:30:26;;;;;;;3.10;1.42;;;;;;;;;;5077134;28;20132;-77
2022/06/21 07:32:58;;;;;;;3.78;1.48;;;;;;;;;;5065364;28;20037;-79
2022/06/21 07:35:28;;;;;;;4.78;1.80;;;;;;;;;;5062213;28;20085;-79
2022/06/21 07:37:56;;;;;;;3.40;1.55;;;;;;;;;;5079484;28;20036;-79
2022/06/21 07:40:28;;;;;;;3.75;2.25;;;;;;;;;;5064039;28;20051;-80
2022/06/21 07:43:11;;;;;;;3.58;1.80;;;;;;;;;;5061584;28;20108;-80
2022/06/21 07:46:09;;;;;;;3.30;2.00;;;;;;;;;;5079928;28;20514;-79
2022/06/21 07:48:46;;;;;;;3.30;2.22;;;;;;;;;;5068735;28;20135;-79
2022/06/21 07:51:15;;;;;;;3.97;2.00;;;;;;;;;;5079431;28;20082;-81
2022/06/21 07:53:44;;;;;;;2.13;1.60;;;;;;;;;;5064957;28;20041;-79
2022/06/21 07:56:19;;;;;;;4.35;1.83;;;;;;;;;;5057467;28;20439;-79
2022/06/21 07:58:49;;;;;;;3.42;1.60;;;;;;;;;;5061109;28;20067;-79
2022/06/21 08:06:57;;;;;;;3.45;1.80;;;;;;;;;;5076809;28;20040;-79
2022/06/21 08:09:26;;;;;;;3.53;2.05;;;;;;;;;;5075748;28;20328;-78
2022/06/21 08:11:55;;;;;;;6.03;2.42;;;;;;;;;;5059580;28;20036;-79
2022/06/21 08:14:22;;;;;;;3.83;1.92;;;;;;;;;;5062869;28;20083;-79
2022/06/21 08:16:54;;;;;;;5.53;2.08;;;;;;;;;;5077579;28;20037;-79
2022/06/21 08:19:34;;;;;;;5.05;2.42;;;;;;;;;;5078133;28;20539;-79
2022/06/21 08:22:03;;;;;;;4.00;1.95;;;;;;;;;;5061710;28;20043;-77
2022/06/21 08:24:35;;;;;;;2.93;1.53;;;;;;;;;;5075906;28;20046;-78
2022/06/21 08:27:11;;;;;;;2.70;1.45;;;;;;;;;;5060525;28;20022;-78
2022/06/21 08:29:41;;;;;;;2.70;1.70;;;;;;;;;;5063864;28;20210;-78
2022/06/21 08:32:10;;;;;;;4.95;1.83;;;;;;;;;;5076811;28;20118;-78
2022/06/21 08:34:45;;;;;;;3.60;1.80;;;;;;;;;;5076233;28;20126;-78
2022/06/21 08:37:33;;;;;;;3.88;1.48;;;;;;;;;;5059941;28;20036;-79
2022/06/21 08:40:10;;;;;;;2.53;1.40;;;;;;;;;;5060159;28;20117;-78
2022/06/21 08:42:54;;;;;;;1.88;1.25;;;;;;;;;;5076271;28;20419;-78
2022/06/21 08:45:41;;;;;;;3.88;1.60;;;;;;;;;;5080394;28;20460;-78
2022/06/21 08:48:13;;;;;;;2.50;1.40;;;;;;;;;;5063936;28;20128;-78
2022/06/21 08:50:48;;;;;;;2.35;1.25;;;;;;;;;;5078376;28;20048;-78
2022/06/21 08:53:14;;;;;;;2.85;1.60;;;;;;;;;;5079616;28;20025;-78
2022/06/21 08:55:49;;;;;;;1.33;1.20;;;;;;;;;;5062055;28;20032;-78
2022/06/21 08:58:31;;;;;;;2.25;1.30;;;;;;;;;;5077993;28;20062;-79
2022/06/21 09:01:20;;;;;;;3.05;1.42;;;;;;;;;;5062451;28;20147;-79
2022/06/21 09:03:58;;;;;;;3.30;1.50;;;;;;;;;;5064903;28;20048;-79
2022/06/21 09:06:30;;;;;;;2.22;1.70;;;;;;;;;;5073391;28;20074;-79
2022/06/21 09:08:59;;;;;;;3.50;1.40;;;;;;;;;;5072906;28;20048;-78
2022/06/21 09:11:28;;;;;;;1.65;1.40;;;;;;;;;;5073321;28;20494;-78
2022/06/21 09:14:05;;;;;;;3.22;1.55;;;;;;;;;;5057087;28;20045;-80
2022/06/21 09:16:38;;;;;;;3.80;1.50;;;;;;;;;;5057126;28;20150;-79
2022/06/21 09:19:16;;;;;;;3.53;1.52;;;;;;;;;;5056708;28;20076;-78
2022/06/21 09:21:47;;;;;;;2.38;1.38;;;;;;;;;;5056564;28;20396;-79
2022/06/21 09:24:38;;;;;;;3.55;1.50;;;;;;;;;;5056209;28;20079;-77
2022/06/21 09:27:13;;;;;;;3.50;1.63;;;;;;;;;;5056685;28;20040;-79
2022/06/21 09:29:57;;;;;;;6.63;1.52;;;;;;;;;;5056583;28;20055;-78
2022/06/21 09:32:23;;;;;;;4.05;1.27;;;;;;;;;;5056608;28;20599;-79
2022/06/21 09:34:55;;;;;;;5.60;2.13;;;;;;;;;;5073091;28;20132;-76
2022/06/21 09:37:34;;;;;;;2.20;1.35;;;;;;;;;;5073643;28;20037;-77
2022/06/21 09:40:06;;;;;;;3.58;1.88;;;;;;;;;;5073936;28;20056;-78
2022/06/21 09:42:35;;;;;;;3.80;1.55;;;;;;;;;;5073422;28;20052;-79
2022/06/21 09:45:19;;;;;;;3.05;1.50;;;;;;;;;;5056418;28;20082;-78
2022/06/21 09:47:51;;;;;;;2.70;1.60;;;;;;;;;;5073366;28;20127;-79
2022/06/21 09:50:32;;;;;;;1.55;1.40;;;;;;;;;;5056742;28;20040;-78
2022/06/21 09:52:58;;;;;;;2.90;1.63;;;;;;;;;;5073430;28;20404;-79
2022/06/21 09:55:44;;;;;;;1.95;1.65;;;;;;;;;;5056394;28;20155;-79
2022/06/21 09:58:28;;;;;;;3.00;1.48;;;;;;;;;;5072315;28;20036;-77
2022/06/21 10:00:58;;;;;;;3.92;1.40;;;;;;;;;;5072852;28;20571;-78
2022/06/21 10:03:34;;;;;;;2.38;1.50;;;;;;;;;;5056335;28;20036;-78
2022/06/21 10:06:11;;;;;;;4.20;1.70;;;;;;;;;;5055871;28;20090;-78
2022/06/21 10:08:47;;;;;;;1.98;1.40;;;;;;;;;;5055987;28;20151;-77
2022/06/21 10:11:19;;;;;;;2.95;1.42;;;;;;;;;;5055286;28;20063;-79
2022/06/21 10:14:00;;;;;;;3.13;1.75;;;;;;;;;;5071754;28;20043;-78
2022/06/21 10:16:26;;;;;;;;;;;;;;;;;;5072495;28;20048;-78
2022/06/21 10:18:56;;;;;;;4.15;1.50;;;;;;;;;;5055649;28;19917;-78
2022/06/21 10:21:41;;;;;;;2.13;1.40;;;;;;;;;;5073237;28;20393;-78
2022/06/21 10:24:07;;;;;;;3.05;1.45;;;;;;;;;;5056261;28;20059;-79
2022/06/21 10:26:57;;;;;;;3.00;1.77;;;;;;;;;;5073705;28;20045;-79
2022/06/21 10:29:32;;;;;;;3.53;1.50;;;;;;;;;;5018553;28;20057;-79
2022/06/21 10:31:58;;;;;;;3.45;1.85;;;;;;;;;;5071800;28;20043;-78
2022/06/21 10:34:24;;;;;;;3.50;1.73;;;;;;;;;;5055459;28;20029;-78
2022/06/21 10:36:59;;;;;;;3.55;1.55;;;;;;;;;;5055337;28;20538;-78
2022/06/21 10:39:28;;;;;;;4.70;2.08;;;;;;;;;;5071644;28;20055;-77
2022/06/21 10:45:08;;;;;;;3.80;1.85;;;;;;;;;;5072700;28;20044;-76
2022/06/21 10:47:56;;;;;;;3.72;1.73;;;;;;;;;;5068526;28;20048;-78
2022/06/21 10:50:35;;;;;;;3.03;1.63;;;;;;;;;;5092640;28;20044;-78
2022/06/21 10:53:10;;;;;;;4.68;1.83;;;;;;;;;;5089809;28;20105;-78
2022/06/21 10:55:45;;;;;;;2.20;1.77;;;;;;;;;;5073471;28;20040;-77
2022/06/21 10:58:11;;;;;;;3.88;1.95;;;;;;;;;;5089016;28;20050;-77
2022/06/21 11:01:27;;;;;;;3.17;1.50;;;;;;;;;;5088337;28;20044;-76
2022/06/21 11:03:55;;;;;;;3.08;1.17;;;;;;;;;;5086359;28;20079;-75
2022/06/21 11:06:24;;;;;;;6.82;1.85;;;;;;;;;;5089508;28;20186;-78
2022/06/21 11:08:50;;;;;;;3.65;1.75;;;;;;;;;;5088322;28;20136;-77
2022/06/21 11:11:26;;;;;;;3.58;2.03;;;;;;;;;;5087781;28;20297;-76
2022/06/21 11:14:04;;;;;;;2.70;2.00;;;;;;;;;;5088485;28;20105;-75
2022/06/21 11:16:36;;;;;;;3.88;2.63;;;;;;;;;;5091313;28;20484;-75
2022/06/21 11:19:06;;;;;;;4.20;1.90;;;;;;;;;;5075585;28;20031;-77
2022/06/21 11:21:38;;;;;;;2.63;1.73;;;;;;;;;;5082585;28;20078;-75
2022/06/21 11:24:11;;;;;;;4.10;2.00;;;;;;;;;;5081671;28;20080;-78
2022/06/21 11:26:56;;;;;;;4.53;2.25;;;;;;;;;;5064064;28;20384;-76
2022/06/21 11:29:35;;;;;;;5.97;2.55;;;;;;;;;;5081757;28;20107;-75
2022/06/21 11:32:20;;;;;;;2.95;2.22;;;;;;;;;;5083037;28;20392;-76
2022/06/21 11:34:58;;;;;;;3.45;1.80;;;;;;;;;;5064664;28;20032;-75
2022/06/21 11:37:27;;;;;;;4.40;2.13;;;;;;;;;;5080838;28;20102;-75
2022/06/21 11:40:02;;;;;;;4.15;2.10;;;;;;;;;;5080872;28;20585;-76
2022/06/21 11:42:39;;;;;;;5.82;2.17;;;;;;;;;;5081338;28;20048;-76
2022/06/21 11:45:05;;;;;;;4.78;2.38;;;;;;;;;;5080887;28;20040;-78
2022/06/21 11:47:50;;;;;;;3.58;2.38;;;;;;;;;;5062173;28;20503;-76
2022/06/21 11:50:21;;;;;;;1.80;1.70;;;;;;;;;;5079553;28;20044;-78
2022/06/21 11:52:46;;;;;;;;;;;;;;;;;;5062625;28;20094;-77
2022/06/21 11:55:15;;;;;;;3.17;1.63;;;;;;;;;;5085838;28;19916;-76
2022/06/21 11:57:59;;;;;;;3.35;1.67;;;;;;;;;;5084035;28;20063;-76
2022/06/21 12:00:30;;;;;;;4.78;1.67;;;;;;;;;;5081620;28;20127;-76
2022/06/21 12:02:56;;;;;;;2.95;2.33;;;;;;;;;;5080387;28;20831;-78
2022/06/21 12:05:27;;;;;;;2.85;1.83;;;;;;;;;;5078744;28;20107;-76
2022/06/21 12:07:57;;;;;;;4.68;2.13;;;;;;;;;;5080433;28;20070;-77
2022/06/21 12:10:26;;;;;;;5.68;2.15;;;;;;;;;;5080221;28;20041;-77
2022/06/21 12:12:59;;;;;;;4.57;2.30;;;;;;;;;;5079036;28;20082;-77
2022/06/21 12:15:37;;;;;;;3.90;1.90;;;;;;;;;;5079924;28;20032;-76
2022/06/21 12:18:10;;;;;;;2.78;2.08;;;;;;;;;;5063211;28;20040;-76
2022/06/21 12:20:36;;;;;;;2.75;1.80;;;;;;;;;;5082787;28;20039;-76
2022/06/21 12:23:06;;;;;;;4.25;1.75;;;;;;;;;;5081205;28;20047;-76
2022/06/21 12:25:32;;;;;;;4.88;2.40;;;;;;;;;;5079697;28;20060;-77
2022/06/21 12:27:59;;;;;;;4.40;1.92;;;;;;;;;;5063236;28;20036;-78
2022/06/21 12:30:27;;;;;;;3.38;2.15;;;;;;;;;;5064251;28;20132;-76
2022/06/21 12:32:57;;;;;;;3.55;2.00;;;;;;;;;;5073412;28;20031;-76
2022/06/21 12:35:36;;;;;;;3.88;2.20;;;;;;;;;;5082780;28;20040;-76
2022/06/21 12:38:02;;;;;;;3.35;2.13;;;;;;;;;;5062442;28;20052;-75
2022/06/21 12:40:36;;;;;;;3.05;1.60;;;;;;;;;;5078859;28;20043;-77
2022/06/21 12:43:08;;;;;;;3.03;2.00;;;;;;;;;;5078406;28;20036;-77
2022/06/21 12:45:34;;;;;;;2.47;1.77;;;;;;;;;;5078558;28;20457;-75
2022/06/21 12:48:17;;;;;;;3.83;1.70;;;;;;;;;;5061673;28;20075;-76
2022/06/21 12:50:50;;;;;;;2.17;1.70;;;;;;;;;;5062812;28;20050;-76
2022/06/21 12:53:28;;;;;;;5.38;1.95;;;;;;;;;;5063520;28;20039;-78
2022/06/21 12:56:00;;;;;;;2.25;1.70;;;;;;;;;;5078901;28;20473;-77
2022/06/21 12:58:37;;;;;;;3.97;1.52;;;;;;;;;;5060908;28;20036;-77
2022/06/21 13:01:14;;;;;;;4.57;1.95;;;;;;;;;;5078950;28;20043;-77
2022/06/21 13:03:55;;;;;;;3.70;1.63;;;;;;;;;;5062417;28;20089;-76
2022/06/21 13:06:24;;;;;;;2.33;1.45;;;;;;;;;;5062913;28;20094;-78
2022/06/21 13:08:56;;;;;;;4.55;1.80;;;;;;;;;;5080426;28;20395;-78
2022/06/21 13:11:22;;;;;;;2.13;1.50;;;;;;;;;;5081575;28;20072;-76
2022/06/21 13:13:48;;;;;;;2.88;1.38;;;;;;;;;;5066462;28;20095;-76
2022/06/21 13:16:20;;;;;;;3.17;1.63;;;;;;;;;;5082339;28;20040;-75
2022/06/21 13:18:49;;;;;;;3.72;1.83;;;;;;;;;;5082578;28;20055;-76
2022/06/21 13:21:38;;;;;;;2.72;1.60;;;;;;;;;;5079328;28;20047;-77
2022/06/21 13:24:15;;;;;;;4.10;1.60;;;;;;;;;;5064145;28;20040;-76
2022/06/21 13:26:58;;;;;;;5.80;1.58;;;;;;;;;;5081004;28;20070;-76
2022/06/21 13:29:53;;;;;;;2.75;1.40;;;;;;;;;;5067083;28;20048;-77
2022/06/21 13:32:23;;;;;;;2.25;1.45;;;;;;;;;;5064230;28;20044;-76
2022/06/21 13:34:52;;;;;;;1.92;1.38;;;;;;;;;;5080783;28;20044;-76
2022/06/21 13:37:22;;;;;;;2.13;1.90;;;;;;;;;;5079345;28;20028;-75
2022/06/21 13:40:02;;;;;;;1.98;1.40;;;;;;;;;;5088120;28;20075;-77
2022/06/21 13:42:37;;;;;;;3.25;1.27;;;;;;;;;;5061426;28;20488;-75
2022/06/21 13:45:22;;;;;;;2.65;1.63;;;;;;;;;;5078076;28;20040;-77
2022/06/21 13:47:52;;;;;;;3.58;1.80;;;;;;;;;;5064550;28;20037;-77
2022/06/21 13:50:18;;;;;;;;;;;;;;;;;;5083417;28;20139;-77
2022/06/21 13:53:00;;;;;;;3.30;1.63;;;;;;;;;;5084223;28;20058;-76
2022/06/21 13:55:26;;;;;;;1.88;1.50;;;;;;;;;;5084180;28;20051;-75
2022/06/21 13:58:13;;;;;;;2.15;1.40;;;;;;;;;;5072853;28;20037;-76
2022/06/21 14:00:48;;;;;;;5.72;1.92;;;;;;;;;;5082687;28;20052;-78
2022/06/21 14:03:29;;;;;;;5.22;1.42;;;;;;;;;;5083499;28;20123;-76
2022/06/21 14:06:02;;;;;;;4.60;1.50;;;;;;;;;;5064654;28;20456;-76
2022/06/21 14:08:32;;;;;;;3.70;1.58;;;;;;;;;;5080895;28;20514;-76
2022/06/21 14:11:30;;;;;;;2.55;1.70;;;;;;;;;;5080859;28;20550;-76
2022/06/21 14:14:08;;;;;;;2.50;1.50;;;;;;;;;;5041232;28;20052;-75
2022/06/21 14:16:43;;;;;;;2.55;1.70;;;;;;;;;;5081099;28;20085;-76
2022/06/21 14:19:18;;;;;;;3.20;1.60;;;;;;;;;;5083589;28;20122;-76
2022/06/21 14:21:49;;;;;;;3.67;1.65;;;;;;;;;;5064471;28;20032;-75
2022/06/21 14:24:18;;;;;;;3.38;1.77;;;;;;;;;;5066348;28;20059;-76
2022/06/21 14:26:47;;;;;;;2.00;1.20;;;;;;;;;;5083669;28;20028;-76
2022/06/21 14:29:21;;;;;;;3.40;1.50;;;;;;;;;;5066521;28;20560;-77
2022/06/21 14:32:00;;;;;;;3.20;1.63;;;;;;;;;;5089427;28;20532;-76
2022/06/21 14:34:47;;;;;;;2.97;1.30;;;;;;;;;;5081059;28;20060;-76
2022/06/21 14:37:20;;;;;;;3.53;1.50;;;;;;;;;;5066165;28;20040;-76
2022/06/21 14:39:57;;;;;;;2.53;1.50;;;;;;;;;;5071055;28;20048;-77
2022/06/21 14:42:28;;;;;;;1.85;1.30;;;;;;;;;;5086931;28;20036;-76
2022/06/21 14:44:57;;;;;;;2.42;1.25;;;;;;;;;;5066057;28;20036;-77
2022/06/21 14:47:46;;;;;;;3.35;1.58;;;;;;;;;;5082489;28;20051;-76
2022/06/21 14:50:15;;;;;;;2.38;1.38;;;;;;;;;;5082347;28;20423;-77
2022/06/21 14:53:00;;;;;;;2.83;1.42;;;;;;;;;;5064534;28;20029;-75
2022/06/21 14:55:39;;;;;;;3.25;1.60;;;;;;;;;;5062797;28;20044;-75
2022/06/21 14:58:11;;;;;;;2.40;1.40;;;;;;;;;;5055158;28;20040;-76
2022/06/21 15:00:47;;;;;;;2.35;1.55;;;;;;;;;;5071395;28;20084;-75
2022/06/21 15:03:19;;;;;;;3.42;1.35;;;;;;;;;;5071117;28;20089;-76
2022/06/21 15:05:56;;;;;;;1.50;1.20;;;;;;;;;;5071042;28;20044;-76
2022/06/21 15:08:35;;;;;;;2.00;1.50;;;;;;;;;;5071460;28;20041;-77
2022/06/21 15:11:09;;;;;;;2.75;1.60;;;;;;;;;;5054467;28;20481;-75
2022/06/21 15:13:45;;;;;;;1.77;1.40;;;;;;;;;;5071503;28;20090;-76
2022/06/21 15:16:14;;;;;;;1.73;1.40;;;;;;;;;;5071289;28;20040;-76
2022/06/21 15:18:48;;;;;;;3.78;1.75;;;;;;;;;;5072307;28;20097;-76
2022/06/21 15:21:16;;;;;;;1.77;1.35;;;;;;;;;;5054911;28;20037;-79
2022/06/21 15:23:47;;;;;;;3.63;1.40;;;;;;;;;;5054935;28;20045;-78
2022/06/21 15:26:23;;;;;;;2.90;1.92;;;;;;;;;;5071268;28;20086;-77
2022/06/21 15:28:53;;;;;;;2.35;1.52;;;;;;;;;;5071362;28;20037;-76